createdAt,value
2022-12-16T00:01:42.544Z,4.60
2022-12-16T00:04:09.484Z,4.75
2022-12-16T00:06:36.161Z,5.37
2022-12-16T00:09:03.242Z,5.06
2022-12-16T00:11:47.525Z,4.93
2022-12-16T00:14:14.437Z,4.88
2022-12-16T00:16:41.388Z,4.96
2022-12-16T00:19:08.241Z,4.59
2022-12-16T00:21:37.987Z,5.30
2022-12-16T00:24:04.941Z,5.67
2022-12-16T00:26:31.860Z,5.58
2022-12-16T00:28:58.705Z,5.94
2022-12-16T00:31:25.438Z,5.44
2022-12-16T00:33:56.442Z,5.70
2022-12-16T00:36:23.340Z,5.50
2022-12-16T00:38:52.486Z,4.80
2022-12-16T00:41:22.426Z,5.28
2022-12-16T00:43:49.245Z,5.49
2022-12-16T00:46:15.986Z,4.97
2022-12-16T00:48:42.959Z,5.25
2022-12-16T00:51:12.726Z,4.64
2022-12-16T00:53:39.557Z,4.96
2022-12-16T00:56:07.553Z,4.64
2022-12-16T00:58:35.408Z,5.15
2022-12-16T01:01:09.286Z,4.28
2022-12-16T01:03:36.939Z,4.83
2022-12-16T01:06:15.579Z,4.15
2022-12-16T01:08:48.895Z,4.17
2022-12-16T01:11:18.197Z,3.91
2022-12-16T01:13:46.397Z,4.36
2022-12-16T01:16:13.417Z,4.25
2022-12-16T01:18:40.328Z,3.84
2022-12-16T01:21:15.570Z,3.81
2022-12-16T01:23:42.630Z,3.84
2022-12-16T01:26:10.925Z,3.83
2022-12-16T01:28:37.759Z,3.54
2022-12-16T01:31:12.578Z,4.17
2022-12-16T01:33:39.726Z,4.58
2022-12-16T01:36:08.095Z,4.85
2022-12-16T01:38:36.156Z,4.57
2022-12-16T01:41:05.535Z,5.33
2022-12-16T01:43:35.996Z,4.82
2022-12-16T01:46:12.185Z,4.96
2022-12-16T01:48:41.785Z,4.73
2022-12-16T01:51:14.738Z,4.89
2022-12-16T01:53:42.821Z,5.09
2022-12-16T01:56:11.071Z,5.46
2022-12-16T01:58:39.033Z,5.88
2022-12-16T02:01:05.969Z,5.23
2022-12-16T02:03:36.770Z,5.34
2022-12-16T02:06:06.224Z,5.51
2022-12-16T02:08:33.235Z,5.43
2022-12-16T02:11:34.008Z,4.70
2022-12-16T02:14:12.751Z,5.22
2022-12-16T02:16:59.971Z,4.74
2022-12-16T02:19:48.383Z,5.57
2022-12-16T02:22:21.297Z,5.24
2022-12-16T02:25:06.872Z,5.49
2022-12-16T02:28:01.652Z,5.10
2022-12-16T02:30:52.142Z,5.49
2022-12-16T02:33:22.488Z,5.03
2022-12-16T02:35:52.073Z,5.21
2022-12-16T02:38:39.778Z,4.21
2022-12-16T02:41:17.364Z,4.31
2022-12-16T02:43:44.158Z,5.45
2022-12-16T02:46:10.876Z,5.75
2022-12-16T02:48:37.792Z,5.67
2022-12-16T02:51:04.549Z,5.73
2022-12-16T02:53:35.679Z,5.99
2022-12-16T02:56:19.457Z,5.94
2022-12-16T02:58:52.653Z,5.49
2022-12-16T03:02:02.365Z,4.77
2022-12-16T03:04:39.265Z,5.71
2022-12-16T03:07:08.272Z,6.22
2022-12-16T03:09:38.642Z,4.86
2022-12-16T03:12:10.015Z,5.62
2022-12-16T03:14:39.835Z,4.86
2022-12-16T03:17:08.536Z,5.34
2022-12-16T03:19:36.676Z,4.98
2022-12-16T03:22:16.099Z,5.45
2022-12-16T03:24:43.277Z,6.38
2022-12-16T03:27:31.315Z,6.07
2022-12-16T03:30:12.714Z,5.40
2022-12-16T03:33:08.845Z,5.56
2022-12-16T03:35:41.081Z,5.93
2022-12-16T03:38:10.832Z,5.64
2022-12-16T03:40:40.223Z,4.97
2022-12-16T03:43:07.672Z,5.72
2022-12-16T03:45:39.448Z,5.34
2022-12-16T03:48:11.217Z,4.79
2022-12-16T03:50:50.364Z,5.45
2022-12-16T03:53:17.213Z,4.80
2022-12-16T03:55:43.838Z,4.93
2022-12-16T03:58:10.692Z,4.99
2022-12-16T04:00:48.098Z,4.33
2022-12-16T04:03:15.172Z,4.42
2022-12-16T04:05:42.170Z,4.05
2022-12-16T04:08:08.824Z,4.65
2022-12-16T04:10:55.278Z,5.01
2022-12-16T04:13:51.333Z,5.74
2022-12-16T04:16:36.989Z,4.86
2022-12-16T04:19:22.769Z,5.62
2022-12-16T04:22:09.080Z,5.28
2022-12-16T04:24:36.341Z,5.36
2022-12-16T04:27:21.656Z,5.78
2022-12-16T04:30:10.321Z,6.46
2022-12-16T04:32:55.727Z,6.24
2022-12-16T04:35:41.341Z,6.52
2022-12-16T04:38:26.829Z,6.27
2022-12-16T04:41:21.191Z,7.08
2022-12-16T04:44:07.010Z,6.45
2022-12-16T04:46:52.736Z,6.83
2022-12-16T04:49:49.062Z,5.85
2022-12-16T04:52:34.684Z,6.99
2022-12-16T04:55:20.314Z,7.44
2022-12-16T04:58:16.689Z,7.54
2022-12-16T05:01:03.833Z,6.15
2022-12-16T05:03:49.593Z,6.40
2022-12-16T05:06:35.769Z,6.07
2022-12-16T05:09:22.020Z,6.27
2022-12-16T05:12:08.142Z,8.08
2022-12-16T05:14:53.850Z,7.50
2022-12-16T05:17:40.276Z,6.72
2022-12-16T05:20:26.317Z,6.46
2022-12-16T05:23:15.395Z,6.79
2022-12-16T05:26:01.008Z,7.31
2022-12-16T05:28:46.586Z,7.83
2022-12-16T05:31:36.183Z,7.21
2022-12-16T05:34:21.888Z,6.72
2022-12-16T05:37:07.360Z,8.39
2022-12-16T05:39:53.980Z,8.52
2022-12-16T05:42:39.743Z,8.88
2022-12-16T05:45:25.176Z,7.80
2022-12-16T05:48:10.707Z,8.08
2022-12-16T05:51:04.341Z,8.70
2022-12-16T05:53:49.985Z,7.22
2022-12-16T05:56:35.623Z,7.78
2022-12-16T05:59:21.246Z,5.99
2022-12-16T06:02:06.921Z,7.29
2022-12-16T06:04:52.615Z,6.91
2022-12-16T06:07:38.247Z,7.58
2022-12-16T06:10:23.711Z,7.67
2022-12-16T06:13:09.383Z,6.12
2022-12-16T06:15:55.001Z,7.24
2022-12-16T06:18:40.449Z,7.69
2022-12-16T06:21:26.183Z,8.22
2022-12-16T06:24:11.684Z,8.16
2022-12-16T06:26:57.346Z,9.61
2022-12-16T06:29:42.870Z,9.35
2022-12-16T06:32:28.468Z,9.30
2022-12-16T06:35:14.180Z,9.42
2022-12-16T06:37:59.670Z,9.28
2022-12-16T06:40:45.286Z,8.73
2022-12-16T06:43:31.104Z,10.01
2022-12-16T06:46:17.076Z,9.61
2022-12-16T06:49:02.653Z,9.94
2022-12-16T06:51:48.107Z,10.04
2022-12-16T06:54:33.827Z,9.52
2022-12-16T06:57:19.341Z,9.95
2022-12-16T07:00:04.787Z,10.94
2022-12-16T07:02:50.761Z,9.93
2022-12-16T07:05:36.083Z,9.56
2022-12-16T07:08:21.797Z,9.44
2022-12-16T07:11:16.011Z,9.88
2022-12-16T07:14:02.461Z,9.56
2022-12-16T07:16:47.993Z,10.77
2022-12-16T07:19:33.655Z,10.66
2022-12-16T07:22:19.271Z,11.34
2022-12-16T07:25:05.551Z,11.02
2022-12-16T07:27:50.795Z,11.26
2022-12-16T07:30:36.520Z,10.54
2022-12-16T07:33:23.449Z,9.72
2022-12-16T07:36:11.647Z,9.60
2022-12-16T07:39:03.756Z,8.95
2022-12-16T07:41:49.179Z,8.87
2022-12-16T07:44:34.822Z,9.58
2022-12-16T07:47:20.558Z,8.93
2022-12-16T07:50:06.075Z,8.76
2022-12-16T07:52:51.885Z,9.92
2022-12-16T07:55:37.581Z,9.99
2022-12-16T07:58:23.152Z,10.82
2022-12-16T08:01:09.801Z,10.49
2022-12-16T08:03:55.917Z,10.45
2022-12-16T08:06:41.604Z,10.31
2022-12-16T08:09:27.193Z,10.37
2022-12-16T08:12:12.963Z,9.72
2022-12-16T08:14:58.585Z,10.27
2022-12-16T08:17:44.140Z,10.72
2022-12-16T08:20:29.960Z,10.64
2022-12-16T08:23:15.680Z,9.63
2022-12-16T08:26:01.254Z,9.37
2022-12-16T08:28:46.872Z,8.90
2022-12-16T08:31:39.928Z,9.72
2022-12-16T08:34:25.489Z,10.28
2022-12-16T08:37:11.295Z,9.36
2022-12-16T08:40:25.762Z,10.67
2022-12-16T08:43:07.863Z,10.80
2022-12-16T08:45:56.775Z,10.52
2022-12-16T08:48:42.416Z,10.91
2022-12-16T08:51:27.972Z,11.06
2022-12-16T08:54:13.472Z,11.78
2022-12-16T08:56:59.141Z,11.02
2022-12-16T08:59:44.935Z,10.38
2022-12-16T09:02:30.746Z,10.36
2022-12-16T09:05:16.863Z,11.25
2022-12-16T09:08:02.488Z,11.26
2022-12-16T09:10:48.054Z,11.27
2022-12-16T09:13:35.018Z,10.72
2022-12-16T09:16:21.241Z,11.19
2022-12-16T09:19:06.914Z,10.77
2022-12-16T09:21:52.912Z,10.25
2022-12-16T09:24:40.094Z,10.35
2022-12-16T09:27:25.556Z,9.94
2022-12-16T09:30:10.862Z,10.22
2022-12-16T09:33:00.810Z,10.76
2022-12-16T09:35:46.372Z,10.61
2022-12-16T09:38:31.955Z,10.18
2022-12-16T09:41:26.731Z,10.94
2022-12-16T09:44:28.112Z,10.65
2022-12-16T09:47:26.873Z,10.51
2022-12-16T09:53:58.229Z,9.86
2022-12-16T09:56:52.357Z,10.24
2022-12-16T09:59:47.416Z,10.66
2022-12-16T10:02:34.779Z,11.07
2022-12-16T10:05:20.914Z,11.06
2022-12-16T10:08:38.994Z,11.13
2022-12-16T10:11:32.510Z,10.91
2022-12-16T10:14:24.323Z,10.93
2022-12-16T10:17:31.836Z,11.23
2022-12-16T10:20:55.164Z,11.10
2022-12-16T10:24:07.100Z,11.20
2022-12-16T10:27:04.748Z,10.99
2022-12-16T10:29:51.940Z,9.95
2022-12-16T10:32:51.223Z,8.81
2022-12-16T10:35:47.891Z,9.41
2022-12-16T10:38:47.882Z,10.00
2022-12-16T10:41:33.886Z,10.39
2022-12-16T10:44:19.449Z,10.56
2022-12-16T10:47:05.273Z,10.60
2022-12-16T10:49:55.046Z,11.19
2022-12-16T10:52:40.431Z,11.33
2022-12-16T10:55:44.466Z,11.03
2022-12-16T10:58:35.925Z,11.35
2022-12-16T11:01:40.111Z,11.13
2022-12-16T11:04:49.399Z,11.38
2022-12-16T11:08:03.912Z,10.60
2022-12-16T11:10:51.935Z,10.02
2022-12-16T11:13:44.283Z,9.90
2022-12-16T11:16:39.737Z,9.68
2022-12-16T11:19:39.555Z,9.52
2022-12-16T11:22:38.082Z,9.60
2022-12-16T11:25:24.262Z,9.89
2022-12-16T11:28:23.732Z,9.50
2022-12-16T11:31:14.435Z,9.43
2022-12-16T11:34:01.324Z,8.20
2022-12-16T11:36:46.748Z,8.73
2022-12-16T11:39:37.483Z,8.87
2022-12-16T11:42:24.073Z,9.27
2022-12-16T11:45:14.903Z,9.90
2022-12-16T11:48:13.498Z,9.41
2022-12-16T11:51:06.227Z,9.19
2022-12-16T11:53:57.019Z,9.90
2022-12-16T11:56:45.313Z,8.91
2022-12-16T12:00:06.316Z,8.57
2022-12-16T12:03:13.793Z,9.14
2022-12-16T12:06:17.436Z,8.92
2022-12-16T12:09:24.092Z,10.55
2022-12-16T12:12:35.741Z,9.75
2022-12-16T12:15:34.269Z,9.53
2022-12-16T12:18:39.557Z,10.62
2022-12-16T12:21:37.332Z,10.68
2022-12-16T12:24:31.521Z,10.67
2022-12-16T12:27:31.944Z,9.88
2022-12-16T12:30:25.440Z,9.66
2022-12-16T12:33:38.885Z,9.59
2022-12-16T12:36:52.467Z,10.17
2022-12-16T12:40:03.841Z,9.75
2022-12-16T12:43:08.599Z,9.50
2022-12-16T12:46:02.260Z,9.60
2022-12-16T12:48:59.712Z,9.59
2022-12-16T12:51:49.618Z,10.02
2022-12-16T12:54:40.814Z,10.36
2022-12-16T12:57:27.946Z,9.51
2022-12-16T13:00:34.331Z,9.28
2022-12-16T13:03:38.117Z,9.47
2022-12-16T13:06:24.877Z,9.54
2022-12-16T13:09:10.444Z,9.56
2022-12-16T13:11:56.531Z,10.05
2022-12-16T13:14:51.404Z,9.96
2022-12-16T13:17:40.643Z,10.21
2022-12-16T13:20:57.149Z,10.43
2022-12-16T13:23:57.768Z,10.71
2022-12-16T13:26:48.329Z,10.64
2022-12-16T13:29:42.508Z,11.22
2022-12-16T13:32:30.798Z,11.14
2022-12-16T13:35:19.661Z,11.60
2022-12-16T13:38:21.969Z,11.54
2022-12-16T13:41:13.368Z,11.87
2022-12-16T13:44:28.949Z,11.90
2022-12-16T13:47:15.030Z,11.54
2022-12-16T13:50:12.630Z,11.75
2022-12-16T13:53:13.679Z,10.76
2022-12-16T13:56:19.363Z,10.79
2022-12-16T13:59:07.891Z,10.31
2022-12-16T14:02:15.664Z,9.57
2022-12-16T14:05:10.786Z,10.12
2022-12-16T14:07:59.750Z,10.24
2022-12-16T14:10:50.651Z,10.70
2022-12-16T14:13:55.040Z,9.56
2022-12-16T14:16:43.372Z,10.00
2022-12-16T14:19:34.611Z,9.64
2022-12-16T14:22:35.297Z,10.22
2022-12-16T14:25:33.448Z,9.90
2022-12-16T14:28:19.186Z,10.25
2022-12-16T14:31:04.638Z,9.76
2022-12-16T14:33:50.192Z,9.72
2022-12-16T14:36:40.903Z,10.11
2022-12-16T14:39:39.679Z,9.76
2022-12-16T14:42:39.059Z,10.45
2022-12-16T14:45:34.893Z,10.14
2022-12-16T14:48:22.923Z,9.65
2022-12-16T14:51:27.972Z,9.99
2022-12-16T14:54:13.334Z,10.38
2022-12-16T14:56:58.670Z,9.80
2022-12-16T14:59:44.217Z,9.78
2022-12-16T15:02:49.206Z,9.38
2022-12-16T15:05:34.673Z,8.64
2022-12-16T15:08:20.016Z,8.73
2022-12-16T15:11:26.050Z,8.51
2022-12-16T15:14:14.046Z,8.98
2022-12-16T15:16:59.395Z,8.85
2022-12-16T15:19:44.831Z,8.58
2022-12-16T15:22:33.932Z,9.47
2022-12-16T15:25:19.793Z,9.78
2022-12-16T15:28:15.478Z,9.43
2022-12-16T15:31:04.057Z,8.76
2022-12-16T15:33:55.277Z,8.43
2022-12-16T15:36:47.162Z,7.80
2022-12-16T15:39:53.435Z,7.82
2022-12-16T15:42:39.076Z,7.48
2022-12-16T15:45:34.196Z,7.34
2022-12-16T15:48:46.209Z,7.08
2022-12-16T15:51:49.635Z,8.40
2022-12-16T15:54:40.241Z,7.86
2022-12-16T15:57:45.289Z,7.06
2022-12-16T16:00:57.185Z,7.77
2022-12-16T16:03:45.422Z,8.86
2022-12-16T16:06:43.582Z,8.72
2022-12-16T16:09:43.879Z,8.70
2022-12-16T16:12:34.030Z,8.73
2022-12-16T16:15:19.553Z,7.99
2022-12-16T16:18:07.583Z,7.91
2022-12-16T16:20:52.920Z,8.65
2022-12-16T16:23:38.458Z,8.17
2022-12-16T16:26:24.100Z,8.05
2022-12-16T16:29:09.595Z,6.69
2022-12-16T16:31:58.195Z,7.88
2022-12-16T16:34:46.189Z,7.53
2022-12-16T16:37:36.859Z,8.11
2022-12-16T16:40:49.319Z,7.39
2022-12-16T16:43:35.365Z,8.23
2022-12-16T16:46:21.527Z,7.80
2022-12-16T16:49:07.107Z,8.01
2022-12-16T16:51:52.672Z,7.66
2022-12-16T16:54:38.113Z,7.73
2022-12-16T16:57:23.569Z,7.21
2022-12-16T17:00:08.717Z,7.16
2022-12-16T17:02:54.520Z,7.32
2022-12-16T17:05:40.108Z,6.68
2022-12-16T17:08:25.573Z,6.68
2022-12-16T17:11:11.186Z,6.47
2022-12-16T17:13:56.395Z,6.52
2022-12-16T17:16:42.039Z,6.26
2022-12-16T17:19:27.309Z,6.29
2022-12-16T17:22:12.599Z,6.17
2022-12-16T17:24:58.087Z,6.09
2022-12-16T17:27:44.607Z,7.08
2022-12-16T17:30:35.237Z,7.31
2022-12-16T17:33:20.829Z,7.44
2022-12-16T17:36:10.534Z,7.29
2022-12-16T17:39:01.808Z,7.54
2022-12-16T17:41:49.085Z,7.95
2022-12-16T17:44:34.245Z,7.76
2022-12-16T17:47:19.667Z,7.44
2022-12-16T17:50:05.116Z,6.93
2022-12-16T17:52:50.694Z,6.62
2022-12-16T17:55:36.063Z,6.57
2022-12-16T17:58:21.314Z,6.53
2022-12-16T18:01:07.011Z,7.29
2022-12-16T18:03:52.512Z,7.59
2022-12-16T18:06:39.091Z,7.97
2022-12-16T18:09:24.604Z,8.00
2022-12-16T18:12:10.025Z,7.42
2022-12-16T18:14:55.658Z,7.51
2022-12-16T18:17:41.137Z,7.66
2022-12-16T18:20:26.860Z,8.27
2022-12-16T18:23:12.983Z,8.05
2022-12-16T18:25:58.525Z,7.82
2022-12-16T18:28:44.156Z,8.05
2022-12-16T18:31:29.696Z,8.01
2022-12-16T18:34:15.312Z,7.64
2022-12-16T18:37:00.981Z,8.22
2022-12-16T18:39:46.160Z,7.72
2022-12-16T18:42:31.943Z,7.52
2022-12-16T18:45:17.516Z,7.18
2022-12-16T18:48:03.184Z,6.66
2022-12-16T18:50:48.533Z,7.49
2022-12-16T18:53:34.206Z,6.80
2022-12-16T18:56:21.761Z,7.10
2022-12-16T18:59:07.229Z,6.87
2022-12-16T19:01:52.940Z,7.29
2022-12-16T19:04:38.695Z,6.82
2022-12-16T19:07:24.188Z,6.80
2022-12-16T19:10:09.778Z,6.74
2022-12-16T19:12:55.235Z,6.86
2022-12-16T19:15:41.723Z,6.27
2022-12-16T19:18:27.634Z,6.38
2022-12-16T19:21:16.242Z,5.39
2022-12-16T19:24:01.929Z,6.21
2022-12-16T19:26:47.314Z,6.25
2022-12-16T19:29:32.819Z,7.14
2022-12-16T19:32:18.472Z,7.18
2022-12-16T19:35:03.932Z,6.78
2022-12-16T19:37:49.560Z,5.84
2022-12-16T19:40:35.424Z,6.80
2022-12-16T19:43:20.882Z,5.48
2022-12-16T19:46:13.117Z,6.35
2022-12-16T19:48:59.385Z,6.62
2022-12-16T19:51:44.992Z,6.55
2022-12-16T19:54:30.446Z,5.81
2022-12-16T19:57:16.038Z,6.22
2022-12-16T20:00:01.641Z,5.84
2022-12-16T20:02:47.666Z,5.82
2022-12-16T20:05:33.673Z,5.89
2022-12-16T20:08:19.163Z,6.07
2022-12-16T20:11:04.884Z,6.31
2022-12-16T20:13:50.532Z,6.05
2022-12-16T20:16:37.267Z,5.56
2022-12-16T20:19:22.978Z,5.03
2022-12-16T20:22:11.870Z,4.78
2022-12-16T20:24:58.492Z,5.95
2022-12-16T20:27:44.303Z,5.56
2022-12-16T20:30:30.472Z,4.50
2022-12-16T20:33:16.166Z,4.55
2022-12-16T20:36:01.653Z,5.72
2022-12-16T20:38:47.212Z,6.21
2022-12-16T20:41:33.020Z,6.20
2022-12-16T20:44:18.586Z,5.82
2022-12-16T20:47:04.027Z,6.09
2022-12-16T20:49:49.562Z,6.33
2022-12-16T20:52:35.115Z,5.21
2022-12-16T20:55:20.655Z,5.30
2022-12-16T20:58:06.032Z,5.42
2022-12-16T21:00:51.659Z,6.26
2022-12-16T21:03:37.399Z,6.22
2022-12-16T21:06:24.503Z,5.66
2022-12-16T21:09:09.946Z,5.32
2022-12-16T21:12:15.319Z,4.92
2022-12-16T21:15:00.441Z,4.45
2022-12-16T21:17:45.873Z,4.47
2022-12-16T21:20:31.478Z,5.54
2022-12-16T21:23:31.746Z,5.72
2022-12-16T21:26:19.840Z,5.39
2022-12-16T21:29:05.980Z,5.67
2022-12-16T21:31:51.635Z,5.52
2022-12-16T21:34:39.298Z,6.04
2022-12-16T21:37:24.718Z,5.56
2022-12-16T21:40:10.358Z,5.26
2022-12-16T21:42:56.304Z,4.75
2022-12-16T21:45:42.026Z,3.99
2022-12-16T21:48:30.187Z,4.22
2022-12-16T21:51:15.761Z,4.55
2022-12-16T21:54:04.897Z,3.81
2022-12-16T21:56:53.243Z,4.42
2022-12-16T21:59:42.045Z,4.26
2022-12-16T22:02:31.206Z,4.11
2022-12-16T22:05:16.695Z,5.07
2022-12-16T22:08:02.489Z,4.83
2022-12-16T22:10:47.871Z,5.03
2022-12-16T22:13:33.471Z,5.81
2022-12-16T22:16:19.012Z,5.00
2022-12-16T22:19:04.492Z,4.83
2022-12-16T22:21:50.163Z,5.44
2022-12-16T22:24:35.698Z,5.37
2022-12-16T22:27:21.320Z,6.02
2022-12-16T22:30:06.936Z,5.10
2022-12-16T22:32:52.522Z,3.54
2022-12-16T22:35:41.991Z,3.34
2022-12-16T22:38:27.431Z,3.24
2022-12-16T22:41:14.529Z,2.98
2022-12-16T22:44:00.238Z,3.91
2022-12-16T22:46:45.919Z,4.60
2022-12-16T22:49:31.908Z,4.64
2022-12-16T22:52:17.715Z,4.36
2022-12-16T22:55:03.245Z,4.93
2022-12-16T22:57:50.842Z,4.56
2022-12-16T23:00:37.437Z,4.26
2022-12-16T23:03:22.968Z,3.46
2022-12-16T23:06:08.632Z,3.37
2022-12-16T23:08:55.235Z,3.25
2022-12-16T23:11:45.313Z,3.18
2022-12-16T23:14:30.684Z,4.16
2022-12-16T23:17:16.276Z,4.78
2022-12-16T23:20:01.760Z,3.87
2022-12-16T23:22:47.374Z,4.13
2022-12-16T23:25:32.839Z,3.08
2022-12-16T23:28:18.089Z,3.62
2022-12-16T23:31:03.655Z,3.29
2022-12-16T23:33:48.985Z,3.51
2022-12-16T23:36:34.643Z,3.27
2022-12-16T23:39:20.221Z,3.19
2022-12-16T23:42:05.881Z,3.72
2022-12-16T23:44:55.321Z,3.43
2022-12-16T23:47:41.924Z,3.57
2022-12-16T23:50:27.598Z,3.35
2022-12-16T23:53:28.400Z,3.32
2022-12-16T23:56:14.906Z,3.62
2022-12-16T23:59:00.376Z,3.77
